sensor_id;sensor_type;location;lat;lon;timestamp;pressure;altitude;pressure_sealevel;temperature;humidity
53858;BME280;39763;51.188;6.690;2022-07-22T00:00:11;101764.81;;;19.16;74.79
53858;BME280;39763;51.188;6.690;2022-07-22T00:01:43;101766.19;;;19.08;74.88
53858;BME280;39763;51.188;6.690;2022-07-22T00:03:15;101769.78;;;19.07;75.08
53858;BME280;39763;51.188;6.690;2022-07-22T00:04:48;101766.47;;;19.01;75.40
53858;BME280;39763;51.188;6.690;2022-07-22T00:06:21;101762.72;;;18.88;75.41
53858;BME280;39763;51.188;6.690;2022-07-22T00:07:53;101766.03;;;18.93;75.60
53858;BME280;39763;51.188;6.690;2022-07-22T00:09:24;101773.94;;;18.95;75.26
53858;BME280;39763;51.188;6.690;2022-07-22T00:10:57;101762.28;;;18.97;75.50
53858;BME280;39763;51.188;6.690;2022-07-22T00:12:29;101763.44;;;18.92;75.41
53858;BME280;39763;51.188;6.690;2022-07-22T00:14:01;101770.50;;;18.93;75.40
53858;BME280;39763;51.188;6.690;2022-07-22T00:15:33;101766.97;;;18.92;75.42
53858;BME280;39763;51.188;6.690;2022-07-22T00:17:05;101764.38;;;18.91;75.63
53858;BME280;39763;51.188;6.690;2022-07-22T00:18:36;101766.09;;;18.92;75.54
53858;BME280;39763;51.188;6.690;2022-07-22T00:20:09;101768.13;;;19.04;75.14
53858;BME280;39763;51.188;6.690;2022-07-22T00:21:42;101774.09;;;19.09;74.85
53858;BME280;39763;51.188;6.690;2022-07-22T00:23:14;101772.28;;;19.10;74.82
53858;BME280;39763;51.188;6.690;2022-07-22T00:24:46;101768.25;;;19.18;74.57
53858;BME280;39763;51.188;6.690;2022-07-22T00:26:18;101766.53;;;19.17;74.32
53858;BME280;39763;51.188;6.690;2022-07-22T00:27:50;101771.00;;;19.17;74.33
53858;BME280;39763;51.188;6.690;2022-07-22T00:29:21;101767.75;;;19.12;74.44
53858;BME280;39763;51.188;6.690;2022-07-22T00:30:53;101771.00;;;19.17;74.54
53858;BME280;39763;51.188;6.690;2022-07-22T00:32:25;101770.00;;;19.19;74.49
53858;BME280;39763;51.188;6.690;2022-07-22T00:33:59;101763.88;;;19.17;74.29
53858;BME280;39763;51.188;6.690;2022-07-22T00:35:32;101767.47;;;19.16;74.42
53858;BME280;39763;51.188;6.690;2022-07-22T00:37:10;101764.66;;;19.19;74.39
53858;BME280;39763;51.188;6.690;2022-07-22T00:38:41;101768.19;;;19.20;74.43
53858;BME280;39763;51.188;6.690;2022-07-22T00:40:13;101763.72;;;19.20;74.18
53858;BME280;39763;51.188;6.690;2022-07-22T00:41:45;101768.13;;;19.21;74.25
53858;BME280;39763;51.188;6.690;2022-07-22T00:43:17;101767.41;;;19.18;74.15
53858;BME280;39763;51.188;6.690;2022-07-22T00:44:49;101765.09;;;19.12;74.54
53858;BME280;39763;51.188;6.690;2022-07-22T00:46:23;101766.09;;;19.09;74.75
53858;BME280;39763;51.188;6.690;2022-07-22T00:47:56;101762.22;;;19.15;74.69
53858;BME280;39763;51.188;6.690;2022-07-22T00:49:28;101758.75;;;19.14;74.67
53858;BME280;39763;51.188;6.690;2022-07-22T00:51:00;101761.47;;;19.13;74.68
53858;BME280;39763;51.188;6.690;2022-07-22T00:52:33;101765.00;;;19.13;74.67
53858;BME280;39763;51.188;6.690;2022-07-22T00:54:05;101759.56;;;19.15;74.81
53858;BME280;39763;51.188;6.690;2022-07-22T00:55:38;101756.16;;;19.13;74.86
53858;BME280;39763;51.188;6.690;2022-07-22T00:57:09;101766.19;;;19.08;74.81
53858;BME280;39763;51.188;6.690;2022-07-22T00:58:41;101763.50;;;19.08;74.99
53858;BME280;39763;51.188;6.690;2022-07-22T01:00:17;101762.34;;;19.13;74.78
53858;BME280;39763;51.188;6.690;2022-07-22T01:01:49;101757.03;;;19.13;74.67
53858;BME280;39763;51.188;6.690;2022-07-22T01:03:22;101764.06;;;19.14;74.60
53858;BME280;39763;51.188;6.690;2022-07-22T01:04:54;101757.41;;;19.06;74.81
53858;BME280;39763;51.188;6.690;2022-07-22T01:06:27;101748.41;;;19.08;75.03
53858;BME280;39763;51.188;6.690;2022-07-22T01:08:05;101749.63;;;19.18;74.66
53858;BME280;39763;51.188;6.690;2022-07-22T01:09:37;101750.63;;;19.16;74.64
53858;BME280;39763;51.188;6.690;2022-07-22T01:11:10;101751.59;;;19.15;74.69
53858;BME280;39763;51.188;6.690;2022-07-22T01:12:42;101748.09;;;19.14;74.64
53858;BME280;39763;51.188;6.690;2022-07-22T01:14:14;101754.25;;;19.15;74.78
53858;BME280;39763;51.188;6.690;2022-07-22T01:15:46;101749.88;;;19.14;74.87
53858;BME280;39763;51.188;6.690;2022-07-22T01:17:18;101749.78;;;19.15;74.84
53858;BME280;39763;51.188;6.690;2022-07-22T01:18:50;101750.84;;;19.13;74.89
53858;BME280;39763;51.188;6.690;2022-07-22T01:20:23;101755.97;;;19.16;74.78
53858;BME280;39763;51.188;6.690;2022-07-22T01:21:55;101754.00;;;19.19;74.72
53858;BME280;39763;51.188;6.690;2022-07-22T01:23:27;101754.78;;;19.21;74.55
53858;BME280;39763;51.188;6.690;2022-07-22T01:24:59;101748.38;;;19.25;74.40
53858;BME280;39763;51.188;6.690;2022-07-22T01:26:31;101755.50;;;19.25;74.28
53858;BME280;39763;51.188;6.690;2022-07-22T01:28:05;101747.75;;;19.20;74.29
53858;BME280;39763;51.188;6.690;2022-07-22T01:29:37;101750.50;;;19.19;74.39
53858;BME280;39763;51.188;6.690;2022-07-22T01:31:08;101743.69;;;19.13;74.60
53858;BME280;39763;51.188;6.690;2022-07-22T01:32:40;101757.97;;;19.12;74.64
53858;BME280;39763;51.188;6.690;2022-07-22T01:34:13;101747.22;;;19.14;74.61
53858;BME280;39763;51.188;6.690;2022-07-22T01:35:46;101746.03;;;19.19;74.31
53858;BME280;39763;51.188;6.690;2022-07-22T01:37:18;101743.19;;;19.22;74.16
53858;BME280;39763;51.188;6.690;2022-07-22T01:38:50;101748.53;;;19.22;74.44
53858;BME280;39763;51.188;6.690;2022-07-22T01:40:22;101738.66;;;19.24;74.26
53858;BME280;39763;51.188;6.690;2022-07-22T01:41:54;101743.63;;;19.30;74.33
53858;BME280;39763;51.188;6.690;2022-07-22T01:43:26;101739.59;;;19.23;74.16
53858;BME280;39763;51.188;6.690;2022-07-22T01:44:57;101739.53;;;19.25;74.27
53858;BME280;39763;51.188;6.690;2022-07-22T01:46:29;101741.09;;;19.29;74.09
53858;BME280;39763;51.188;6.690;2022-07-22T01:48:02;101739.59;;;19.23;74.28
53858;BME280;39763;51.188;6.690;2022-07-22T01:49:34;101738.44;;;19.29;74.17
53858;BME280;39763;51.188;6.690;2022-07-22T01:51:07;101737.81;;;19.24;74.37
53858;BME280;39763;51.188;6.690;2022-07-22T01:52:41;101741.03;;;19.13;74.78
53858;BME280;39763;51.188;6.690;2022-07-22T01:54:14;101741.97;;;19.12;74.82
53858;BME280;39763;51.188;6.690;2022-07-22T01:55:45;101741.34;;;19.07;75.06
53858;BME280;39763;51.188;6.690;2022-07-22T01:57:18;101739.47;;;19.09;75.18
53858;BME280;39763;51.188;6.690;2022-07-22T01:58:53;101741.19;;;19.10;75.34
53858;BME280;39763;51.188;6.690;2022-07-22T02:00:28;101740.09;;;19.14;75.04
53858;BME280;39763;51.188;6.690;2022-07-22T02:02:04;101732.19;;;19.13;75.17
53858;BME280;39763;51.188;6.690;2022-07-22T02:03:36;101736.66;;;19.12;74.96
53858;BME280;39763;51.188;6.690;2022-07-22T02:05:10;101738.84;;;19.04;75.37
53858;BME280;39763;51.188;6.690;2022-07-22T02:06:44;101736.25;;;19.02;75.50
53858;BME280;39763;51.188;6.690;2022-07-22T02:08:16;101731.72;;;19.05;75.32
53858;BME280;39763;51.188;6.690;2022-07-22T02:10:07;101739.78;;;19.03;75.43
53858;BME280;39763;51.188;6.690;2022-07-22T02:11:40;101732.44;;;18.91;75.74
53858;BME280;39763;51.188;6.690;2022-07-22T02:13:13;101739.09;;;18.82;76.12
53858;BME280;39763;51.188;6.690;2022-07-22T02:14:45;101740.97;;;18.80;76.24
53858;BME280;39763;51.188;6.690;2022-07-22T02:16:18;101737.75;;;18.74;76.35
53858;BME280;39763;51.188;6.690;2022-07-22T02:17:53;101741.69;;;18.66;76.92
53858;BME280;39763;51.188;6.690;2022-07-22T02:19:24;101738.25;;;18.64;77.17
53858;BME280;39763;51.188;6.690;2022-07-22T02:20:56;101735.25;;;18.71;76.68
53858;BME280;39763;51.188;6.690;2022-07-22T02:22:31;101731.91;;;18.67;76.79
53858;BME280;39763;51.188;6.690;2022-07-22T02:24:03;101731.66;;;18.72;76.75
53858;BME280;39763;51.188;6.690;2022-07-22T02:25:35;101729.63;;;18.77;76.80
53858;BME280;39763;51.188;6.690;2022-07-22T02:27:07;101741.06;;;18.79;76.60
53858;BME280;39763;51.188;6.690;2022-07-22T02:28:41;101740.91;;;18.82;76.45
53858;BME280;39763;51.188;6.690;2022-07-22T02:30:14;101739.03;;;18.84;76.41
53858;BME280;39763;51.188;6.690;2022-07-22T02:31:46;101735.03;;;18.75;76.66
53858;BME280;39763;51.188;6.690;2022-07-22T02:33:18;101731.56;;;18.73;76.91
53858;BME280;39763;51.188;6.690;2022-07-22T02:34:50;101731.72;;;18.70;77.07
53858;BME280;39763;51.188;6.690;2022-07-22T02:36:23;101741.41;;;18.54;77.59
53858;BME280;39763;51.188;6.690;2022-07-22T02:37:56;101735.13;;;18.38;77.81
53858;BME280;39763;51.188;6.690;2022-07-22T02:39:28;101734.28;;;18.37;77.80
53858;BME280;39763;51.188;6.690;2022-07-22T02:41:00;101740.75;;;18.31;78.09
53858;BME280;39763;51.188;6.690;2022-07-22T02:42:32;101732.69;;;18.33;78.28
53858;BME280;39763;51.188;6.690;2022-07-22T02:44:04;101735.28;;;18.35;78.08
53858;BME280;39763;51.188;6.690;2022-07-22T02:45:36;101742.25;;;18.37;77.79
53858;BME280;39763;51.188;6.690;2022-07-22T02:47:08;101735.34;;;18.33;77.15
53858;BME280;39763;51.188;6.690;2022-07-22T02:48:41;101738.66;;;18.38;77.09
53858;BME280;39763;51.188;6.690;2022-07-22T02:50:16;101738.59;;;18.40;76.96
53858;BME280;39763;51.188;6.690;2022-07-22T02:51:48;101744.91;;;18.37;77.12
53858;BME280;39763;51.188;6.690;2022-07-22T02:53:21;101743.13;;;18.38;76.92
53858;BME280;39763;51.188;6.690;2022-07-22T02:54:53;101749.59;;;18.32;77.53
53858;BME280;39763;51.188;6.690;2022-07-22T02:56:25;101743.19;;;18.36;77.58
53858;BME280;39763;51.188;6.690;2022-07-22T02:58:04;101742.25;;;18.37;77.34
53858;BME280;39763;51.188;6.690;2022-07-22T02:59:36;101739.91;;;18.48;77.01
53858;BME280;39763;51.188;6.690;2022-07-22T03:01:08;101741.25;;;18.57;76.45
53858;BME280;39763;51.188;6.690;2022-07-22T03:02:49;101747.38;;;18.59;76.30
53858;BME280;39763;51.188;6.690;2022-07-22T03:04:21;101745.38;;;18.45;76.30
53858;BME280;39763;51.188;6.690;2022-07-22T03:05:53;101748.38;;;18.39;76.71
53858;BME280;39763;51.188;6.690;2022-07-22T03:07:30;101746.00;;;18.33;76.90
53858;BME280;39763;51.188;6.690;2022-07-22T03:09:04;101746.47;;;18.41;76.64
53858;BME280;39763;51.188;6.690;2022-07-22T03:10:39;101743.63;;;18.27;77.01
53858;BME280;39763;51.188;6.690;2022-07-22T03:12:15;101740.59;;;18.35;76.64
53858;BME280;39763;51.188;6.690;2022-07-22T03:13:47;101741.78;;;18.46;76.33
53858;BME280;39763;51.188;6.690;2022-07-22T03:15:19;101738.38;;;18.61;75.87
53858;BME280;39763;51.188;6.690;2022-07-22T03:16:51;101739.81;;;18.69;75.32
53858;BME280;39763;51.188;6.690;2022-07-22T03:18:25;101747.63;;;18.72;75.09
53858;BME280;39763;51.188;6.690;2022-07-22T03:19:56;101738.31;;;18.63;75.10
53858;BME280;39763;51.188;6.690;2022-07-22T03:21:28;101746.88;;;18.51;75.45
53858;BME280;39763;51.188;6.690;2022-07-22T03:23:01;101743.19;;;18.36;75.98
53858;BME280;39763;51.188;6.690;2022-07-22T03:24:34;101749.66;;;18.30;76.49
53858;BME280;39763;51.188;6.690;2022-07-22T03:26:06;101743.19;;;18.36;76.39
53858;BME280;39763;51.188;6.690;2022-07-22T03:27:38;101741.84;;;18.45;76.29
53858;BME280;39763;51.188;6.690;2022-07-22T03:29:11;101739.50;;;18.56;75.83
53858;BME280;39763;51.188;6.690;2022-07-22T03:30:43;101734.94;;;18.59;75.66
53858;BME280;39763;51.188;6.690;2022-07-22T03:32:16;101737.59;;;18.59;75.38
53858;BME280;39763;51.188;6.690;2022-07-22T03:33:51;101742.28;;;18.54;75.79
53858;BME280;39763;51.188;6.690;2022-07-22T03:35:24;101736.44;;;18.65;75.43
53858;BME280;39763;51.188;6.690;2022-07-22T03:36:56;101725.88;;;18.63;75.17
53858;BME280;39763;51.188;6.690;2022-07-22T03:38:28;101732.13;;;18.62;75.36
53858;BME280;39763;51.188;6.690;2022-07-22T03:40:03;101731.47;;;18.57;75.46
53858;BME280;39763;51.188;6.690;2022-07-22T03:41:36;101729.31;;;18.65;75.44
53858;BME280;39763;51.188;6.690;2022-07-22T03:43:08;101738.47;;;18.60;75.63
53858;BME280;39763;51.188;6.690;2022-07-22T03:44:40;101736.03;;;18.73;75.43
53858;BME280;39763;51.188;6.690;2022-07-22T03:46:12;101735.88;;;18.76;75.37
53858;BME280;39763;51.188;6.690;2022-07-22T03:47:44;101737.97;;;18.86;74.97
53858;BME280;39763;51.188;6.690;2022-07-22T03:49:17;101731.66;;;18.89;74.66
53858;BME280;39763;51.188;6.690;2022-07-22T03:50:49;101739.91;;;18.84;74.65
53858;BME280;39763;51.188;6.690;2022-07-22T03:52:22;101735.25;;;18.88;74.71
53858;BME280;39763;51.188;6.690;2022-07-22T03:53:54;101731.50;;;18.92;74.50
53858;BME280;39763;51.188;6.690;2022-07-22T03:55:28;101740.78;;;19.00;74.18
53858;BME280;39763;51.188;6.690;2022-07-22T03:57:01;101733.50;;;19.04;74.08
53858;BME280;39763;51.188;6.690;2022-07-22T03:58:32;101724.59;;;18.88;74.54
53858;BME280;39763;51.188;6.690;2022-07-22T04:00:05;101728.41;;;18.99;74.42
53858;BME280;39763;51.188;6.690;2022-07-22T04:01:44;101726.38;;;19.05;74.23
53858;BME280;39763;51.188;6.690;2022-07-22T04:03:16;101721.69;;;19.10;74.06
53858;BME280;39763;51.188;6.690;2022-07-22T04:04:57;101726.78;;;19.14;73.90
53858;BME280;39763;51.188;6.690;2022-07-22T04:06:28;101734.00;;;19.12;73.97
53858;BME280;39763;51.188;6.690;2022-07-22T04:08:10;101733.44;;;19.06;74.06
53858;BME280;39763;51.188;6.690;2022-07-22T04:09:42;101729.13;;;19.03;74.43
53858;BME280;39763;51.188;6.690;2022-07-22T04:11:15;101730.69;;;19.07;74.48
53858;BME280;39763;51.188;6.690;2022-07-22T04:12:47;101731.34;;;18.95;74.83
53858;BME280;39763;51.188;6.690;2022-07-22T04:14:25;101732.72;;;19.02;74.94
53858;BME280;39763;51.188;6.690;2022-07-22T04:16:00;101732.34;;;19.10;74.87
53858;BME280;39763;51.188;6.690;2022-07-22T04:17:33;101725.72;;;19.17;74.28
53858;BME280;39763;51.188;6.690;2022-07-22T04:19:04;101726.28;;;19.23;73.84
53858;BME280;39763;51.188;6.690;2022-07-22T04:20:51;101725.09;;;19.29;73.65
53858;BME280;39763;51.188;6.690;2022-07-22T04:22:23;101720.13;;;19.38;73.41
53858;BME280;39763;51.188;6.690;2022-07-22T04:23:59;101725.38;;;19.40;72.95
53858;BME280;39763;51.188;6.690;2022-07-22T04:25:35;101721.06;;;19.37;72.65
53858;BME280;39763;51.188;6.690;2022-07-22T04:27:09;101718.91;;;19.28;72.26
53858;BME280;39763;51.188;6.690;2022-07-22T04:28:41;101719.09;;;19.08;72.74
53858;BME280;39763;51.188;6.690;2022-07-22T04:30:13;101716.88;;;19.16;72.72
53858;BME280;39763;51.188;6.690;2022-07-22T04:31:48;101716.25;;;19.28;72.67
53858;BME280;39763;51.188;6.690;2022-07-22T04:33:23;101718.34;;;19.39;72.42
53858;BME280;39763;51.188;6.690;2022-07-22T04:34:54;101717.78;;;19.50;72.03
53858;BME280;39763;51.188;6.690;2022-07-22T04:36:26;101717.78;;;19.50;71.55
53858;BME280;39763;51.188;6.690;2022-07-22T04:37:58;101719.34;;;19.54;71.34
53858;BME280;39763;51.188;6.690;2022-07-22T04:39:30;101719.84;;;19.60;71.24
53858;BME280;39763;51.188;6.690;2022-07-22T04:41:05;101725.72;;;19.67;70.93
53858;BME280;39763;51.188;6.690;2022-07-22T04:42:38;101727.06;;;19.74;70.50
53858;BME280;39763;51.188;6.690;2022-07-22T04:44:10;101735.50;;;19.66;70.10
53858;BME280;39763;51.188;6.690;2022-07-22T04:45:42;101729.47;;;19.63;70.15
53858;BME280;39763;51.188;6.690;2022-07-22T04:47:14;101740.56;;;19.55;70.35
53858;BME280;39763;51.188;6.690;2022-07-22T04:48:46;101736.19;;;19.54;70.54
53858;BME280;39763;51.188;6.690;2022-07-22T04:50:18;101733.75;;;19.50;70.52
53858;BME280;39763;51.188;6.690;2022-07-22T04:51:57;101732.50;;;19.40;70.42
53858;BME280;39763;51.188;6.690;2022-07-22T04:53:44;101737.13;;;19.36;70.83
53858;BME280;39763;51.188;6.690;2022-07-22T04:55:22;101724.44;;;19.41;70.79
53858;BME280;39763;51.188;6.690;2022-07-22T04:56:55;101739.72;;;19.37;70.83
53858;BME280;39763;51.188;6.690;2022-07-22T04:58:28;101733.94;;;19.29;70.93
53858;BME280;39763;51.188;6.690;2022-07-22T05:00:00;101736.94;;;19.23;70.79
53858;BME280;39763;51.188;6.690;2022-07-22T05:01:33;101732.63;;;19.21;71.26
53858;BME280;39763;51.188;6.690;2022-07-22T05:03:06;101736.22;;;19.20;71.58
53858;BME280;39763;51.188;6.690;2022-07-22T05:04:38;101729.56;;;19.28;71.22
53858;BME280;39763;51.188;6.690;2022-07-22T05:06:10;101741.25;;;19.26;71.18
53858;BME280;39763;51.188;6.690;2022-07-22T05:07:45;101734.28;;;19.23;71.20
53858;BME280;39763;51.188;6.690;2022-07-22T05:09:17;101746.97;;;19.18;71.26
53858;BME280;39763;51.188;6.690;2022-07-22T05:10:48;101742.91;;;19.11;71.28
53858;BME280;39763;51.188;6.690;2022-07-22T05:12:20;101742.75;;;19.14;71.32
53858;BME280;39763;51.188;6.690;2022-07-22T05:13:53;101732.00;;;19.16;71.45
53858;BME280;39763;51.188;6.690;2022-07-22T05:15:26;101739.25;;;19.14;71.50
53858;BME280;39763;51.188;6.690;2022-07-22T05:16:57;101735.88;;;19.10;71.56
53858;BME280;39763;51.188;6.690;2022-07-22T05:18:29;101748.56;;;19.05;71.81
53858;BME280;39763;51.188;6.690;2022-07-22T05:20:02;101743.38;;;19.02;72.07
53858;BME280;39763;51.188;6.690;2022-07-22T05:21:34;101740.56;;;19.05;72.20
53858;BME280;39763;51.188;6.690;2022-07-22T05:23:06;101733.34;;;19.07;72.00
53858;BME280;39763;51.188;6.690;2022-07-22T05:24:40;101733.19;;;19.10;71.68
53858;BME280;39763;51.188;6.690;2022-07-22T05:26:12;101726.38;;;19.05;71.65
53858;BME280;39763;51.188;6.690;2022-07-22T05:27:49;101735.94;;;19.09;71.87
53858;BME280;39763;51.188;6.690;2022-07-22T05:29:24;101728.47;;;19.15;71.64
53858;BME280;39763;51.188;6.690;2022-07-22T05:30:56;101723.84;;;19.19;71.44
53858;BME280;39763;51.188;6.690;2022-07-22T05:32:30;101730.38;;;19.13;71.19
53858;BME280;39763;51.188;6.690;2022-07-22T05:34:05;101724.63;;;19.21;71.28
53858;BME280;39763;51.188;6.690;2022-07-22T05:35:42;101725.69;;;19.34;70.93
53858;BME280;39763;51.188;6.690;2022-07-22T05:37:14;101719.78;;;19.45;70.65
53858;BME280;39763;51.188;6.690;2022-07-22T05:38:47;101726.53;;;19.52;70.27
53858;BME280;39763;51.188;6.690;2022-07-22T05:40:19;101715.66;;;19.56;70.19
53858;BME280;39763;51.188;6.690;2022-07-22T05:41:51;101723.03;;;19.67;69.73
53858;BME280;39763;51.188;6.690;2022-07-22T05:43:28;101720.63;;;19.78;69.49
53858;BME280;39763;51.188;6.690;2022-07-22T05:45:01;101728.31;;;19.84;69.20
53858;BME280;39763;51.188;6.690;2022-07-22T05:46:32;101725.56;;;19.86;69.06
53858;BME280;39763;51.188;6.690;2022-07-22T05:48:05;101724.53;;;19.88;68.87
53858;BME280;39763;51.188;6.690;2022-07-22T05:49:38;101719.19;;;19.88;68.81
53858;BME280;39763;51.188;6.690;2022-07-22T05:51:16;101722.34;;;19.95;68.73
53858;BME280;39763;51.188;6.690;2022-07-22T05:52:48;101722.09;;;19.99;68.39
53858;BME280;39763;51.188;6.690;2022-07-22T05:54:20;101726.13;;;19.91;68.04
53858;BME280;39763;51.188;6.690;2022-07-22T05:55:51;101723.75;;;19.86;68.60
53858;BME280;39763;51.188;6.690;2022-07-22T05:57:23;101720.88;;;19.89;68.63
53858;BME280;39763;51.188;6.690;2022-07-22T05:58:56;101716.78;;;19.84;68.67
53858;BME280;39763;51.188;6.690;2022-07-22T06:00:30;101722.50;;;19.76;68.69
53858;BME280;39763;51.188;6.690;2022-07-22T06:02:03;101718.03;;;19.77;69.05
53858;BME280;39763;51.188;6.690;2022-07-22T06:03:43;101725.78;;;19.81;68.87
53858;BME280;39763;51.188;6.690;2022-07-22T06:05:18;101721.84;;;19.88;68.80
53858;BME280;39763;51.188;6.690;2022-07-22T06:07:09;101724.00;;;19.97;68.83
53858;BME280;39763;51.188;6.690;2022-07-22T06:08:42;101718.50;;;20.00;68.33
53858;BME280;39763;51.188;6.690;2022-07-22T06:10:15;101736.88;;;20.05;68.43
53858;BME280;39763;51.188;6.690;2022-07-22T06:11:47;101735.84;;;20.07;67.94
53858;BME280;39763;51.188;6.690;2022-07-22T06:13:18;101737.16;;;20.16;68.23
53858;BME280;39763;51.188;6.690;2022-07-22T06:14:50;101731.38;;;20.24;67.69
53858;BME280;39763;51.188;6.690;2022-07-22T06:16:24;101732.75;;;20.31;67.66
53858;BME280;39763;51.188;6.690;2022-07-22T06:18:00;101730.69;;;20.36;67.27
53858;BME280;39763;51.188;6.690;2022-07-22T06:19:32;101727.66;;;20.42;67.06
53858;BME280;39763;51.188;6.690;2022-07-22T06:21:05;101740.84;;;20.45;66.90
53858;BME280;39763;51.188;6.690;2022-07-22T06:22:39;101728.28;;;20.47;66.83
53858;BME280;39763;51.188;6.690;2022-07-22T06:24:11;101733.41;;;20.50;66.89
53858;BME280;39763;51.188;6.690;2022-07-22T06:25:43;101726.94;;;20.54;66.91
53858;BME280;39763;51.188;6.690;2022-07-22T06:27:28;101724.69;;;20.62;66.82
53858;BME280;39763;51.188;6.690;2022-07-22T06:29:01;101734.03;;;20.69;66.50
53858;BME280;39763;51.188;6.690;2022-07-22T06:30:32;101727.59;;;20.73;66.16
53858;BME280;39763;51.188;6.690;2022-07-22T06:32:06;101728.72;;;20.69;65.63
53858;BME280;39763;51.188;6.690;2022-07-22T06:33:39;101735.50;;;20.75;66.27
53858;BME280;39763;51.188;6.690;2022-07-22T06:35:11;101725.22;;;20.83;66.57
53858;BME280;39763;51.188;6.690;2022-07-22T06:36:42;101730.19;;;20.89;66.46
53858;BME280;39763;51.188;6.690;2022-07-22T06:38:14;101727.03;;;20.97;66.17
53858;BME280;39763;51.188;6.690;2022-07-22T06:40:21;101734.09;;;20.98;65.70
53858;BME280;39763;51.188;6.690;2022-07-22T06:42:04;101728.94;;;20.95;65.70
53858;BME280;39763;51.188;6.690;2022-07-22T06:43:55;101734.59;;;20.90;65.89
53858;BME280;39763;51.188;6.690;2022-07-22T06:45:38;101722.28;;;20.88;65.49
53858;BME280;39763;51.188;6.690;2022-07-22T06:47:24;101733.81;;;20.88;65.67
53858;BME280;39763;51.188;6.690;2022-07-22T06:48:57;101728.38;;;20.90;65.79
53858;BME280;39763;51.188;6.690;2022-07-22T06:50:32;101727.44;;;20.91;65.66
53858;BME280;39763;51.188;6.690;2022-07-22T06:52:09;101738.13;;;20.91;65.73
53858;BME280;39763;51.188;6.690;2022-07-22T06:53:42;101729.03;;;20.93;65.92
53858;BME280;39763;51.188;6.690;2022-07-22T06:55:20;101727.63;;;21.02;65.87
53858;BME280;39763;51.188;6.690;2022-07-22T06:57:02;101723.72;;;21.07;65.55
53858;BME280;39763;51.188;6.690;2022-07-22T06:58:37;101734.13;;;21.12;65.15
53858;BME280;39763;51.188;6.690;2022-07-22T07:00:11;101721.53;;;21.14;64.97
53858;BME280;39763;51.188;6.690;2022-07-22T07:02:06;101734.81;;;21.16;64.75
53858;BME280;39763;51.188;6.690;2022-07-22T07:03:43;101731.41;;;21.28;64.79
53858;BME280;39763;51.188;6.690;2022-07-22T07:05:15;101732.66;;;21.36;64.09
53858;BME280;39763;51.188;6.690;2022-07-22T07:06:50;101722.53;;;21.41;64.16
53858;BME280;39763;51.188;6.690;2022-07-22T07:08:37;101729.59;;;21.42;63.80
53858;BME280;39763;51.188;6.690;2022-07-22T07:10:11;101728.53;;;21.45;63.75
53858;BME280;39763;51.188;6.690;2022-07-22T07:11:57;101729.22;;;21.49;63.52
53858;BME280;39763;51.188;6.690;2022-07-22T07:14:01;101731.03;;;21.48;63.18
53858;BME280;39763;51.188;6.690;2022-07-22T07:15:33;101733.69;;;21.48;63.43
53858;BME280;39763;51.188;6.690;2022-07-22T07:17:09;101724.13;;;21.58;63.53
53858;BME280;39763;51.188;6.690;2022-07-22T07:18:46;101735.69;;;21.59;62.50
53858;BME280;39763;51.188;6.690;2022-07-22T07:20:19;101730.53;;;21.56;62.03
53858;BME280;39763;51.188;6.690;2022-07-22T07:21:51;101730.72;;;21.53;62.33
53858;BME280;39763;51.188;6.690;2022-07-22T07:23:23;101726.13;;;21.55;62.52
53858;BME280;39763;51.188;6.690;2022-07-22T07:24:55;101723.69;;;21.52;62.01
53858;BME280;39763;51.188;6.690;2022-07-22T07:26:28;101722.16;;;21.48;61.91
53858;BME280;39763;51.188;6.690;2022-07-22T07:28:00;101711.84;;;21.41;61.94
53858;BME280;39763;51.188;6.690;2022-07-22T07:30:03;101713.66;;;21.41;61.78
53858;BME280;39763;51.188;6.690;2022-07-22T07:31:35;101716.31;;;21.41;61.91
53858;BME280;39763;51.188;6.690;2022-07-22T07:33:14;101719.31;;;21.36;62.02
53858;BME280;39763;51.188;6.690;2022-07-22T07:34:47;101716.03;;;21.31;61.93
53858;BME280;39763;51.188;6.690;2022-07-22T07:36:19;101720.34;;;21.34;62.39
53858;BME280;39763;51.188;6.690;2022-07-22T07:37:54;101721.66;;;21.41;62.83
53858;BME280;39763;51.188;6.690;2022-07-22T07:39:26;101715.25;;;21.58;63.32
53858;BME280;39763;51.188;6.690;2022-07-22T07:40:58;101713.22;;;21.75;62.38
53858;BME280;39763;51.188;6.690;2022-07-22T07:42:30;101719.41;;;21.90;61.57
53858;BME280;39763;51.188;6.690;2022-07-22T07:44:02;101714.91;;;21.91;60.65
53858;BME280;39763;51.188;6.690;2022-07-22T07:45:35;101717.31;;;21.95;60.46
53858;BME280;39763;51.188;6.690;2022-07-22T07:47:08;101714.72;;;21.94;60.00
53858;BME280;39763;51.188;6.690;2022-07-22T07:48:41;101714.16;;;21.89;59.32
53858;BME280;39763;51.188;6.690;2022-07-22T07:50:14;101713.22;;;21.75;58.81
53858;BME280;39763;51.188;6.690;2022-07-22T07:51:46;101718.59;;;21.61;59.01
53858;BME280;39763;51.188;6.690;2022-07-22T07:53:20;101712.78;;;21.55;59.19
53858;BME280;39763;51.188;6.690;2022-07-22T07:54:52;101712.69;;;21.56;59.56
53858;BME280;39763;51.188;6.690;2022-07-22T07:56:44;101708.09;;;21.58;59.83
53858;BME280;39763;51.188;6.690;2022-07-22T07:58:16;101716.28;;;21.69;60.55
53858;BME280;39763;51.188;6.690;2022-07-22T07:59:48;101714.19;;;21.74;59.71
53858;BME280;39763;51.188;6.690;2022-07-22T08:01:20;101714.25;;;21.87;60.43
53858;BME280;39763;51.188;6.690;2022-07-22T08:03:11;101717.06;;;21.98;59.80
53858;BME280;39763;51.188;6.690;2022-07-22T08:04:44;101718.16;;;21.96;59.36
53858;BME280;39763;51.188;6.690;2022-07-22T08:06:25;101715.69;;;21.93;59.11
53858;BME280;39763;51.188;6.690;2022-07-22T08:07:57;101710.81;;;21.99;60.10
53858;BME280;39763;51.188;6.690;2022-07-22T08:09:29;101698.84;;;22.05;59.77
53858;BME280;39763;51.188;6.690;2022-07-22T08:11:02;101700.81;;;22.15;59.81